Time;durP1;ratioP1;P1;durP2;ratioP2;P2;SDS_P1;SDS_P2;PMS_P1;PMS_P2;Temp;Humidity;BMP_temperature;BMP_pressure;BME280_temperature;BME280_humidity;BME280_pressure;Samples;Min_cycle;Max_cycle;Signal;HPM_P1;HPM_P2
2022/05/18 00:00:27;;;;;;;5.90;5.30;;;;;;;;;;5018307;28;20811;-77
2022/05/18 00:02:55;;;;;;;6.80;5.70;;;;;;;;;;5022654;28;20486;-77
2022/05/18 00:05:22;;;;;;;6.27;5.67;;;;;;;;;;5021515;28;20447;-78
2022/05/18 00:07:49;;;;;;;7.50;5.53;;;;;;;;;;5013090;28;20461;-77
2022/05/18 00:10:16;;;;;;;6.80;5.80;;;;;;;;;;4998085;28;20454;-78
2022/05/18 00:12:45;;;;;;;6.60;5.87;;;;;;;;;;4992762;28;20448;-77
2022/05/18 00:15:13;;;;;;;8.07;5.33;;;;;;;;;;4992968;28;20990;-77
2022/05/18 00:17:41;;;;;;;6.70;5.70;;;;;;;;;;4992789;28;20461;-77
2022/05/18 00:20:09;;;;;;;6.33;5.80;;;;;;;;;;4992310;28;20452;-77
2022/05/18 00:22:44;;;;;;;6.20;5.40;;;;;;;;;;4992059;28;20467;-77
2022/05/18 00:25:11;;;;;;;5.87;5.30;;;;;;;;;;4992442;28;20775;-77
2022/05/18 00:27:38;;;;;;;5.67;5.23;;;;;;;;;;4992497;28;20836;-78
2022/05/18 00:30:07;;;;;;;6.50;5.30;;;;;;;;;;4992577;28;20456;-77
2022/05/18 00:32:34;;;;;;;6.17;5.20;;;;;;;;;;4991682;28;20993;-77
2022/05/18 00:35:01;;;;;;;5.67;5.17;;;;;;;;;;4992068;28;20929;-77
2022/05/18 00:37:28;;;;;;;6.30;5.30;;;;;;;;;;4992118;28;20461;-77
2022/05/18 00:39:55;;;;;;;5.90;5.33;;;;;;;;;;4992009;28;20463;-77
2022/05/18 00:42:24;;;;;;;5.23;4.80;;;;;;;;;;4992031;28;21042;-77
2022/05/18 00:44:51;;;;;;;8.30;5.60;;;;;;;;;;4992607;28;20675;-77
2022/05/18 00:47:20;;;;;;;6.00;5.40;;;;;;;;;;4992003;28;20472;-77
2022/05/18 00:49:48;;;;;;;5.80;5.40;;;;;;;;;;4991316;28;21003;-77
2022/05/18 00:52:16;;;;;;;7.57;5.53;;;;;;;;;;4992028;28;20440;-77
2022/05/18 00:54:43;;;;;;;5.87;5.37;;;;;;;;;;4992180;28;20515;-77
2022/05/18 00:57:12;;;;;;;4.87;4.50;;;;;;;;;;4992092;28;20459;-77
2022/05/18 00:59:42;;;;;;;5.37;4.97;;;;;;;;;;4991982;28;20459;-77
2022/05/18 01:02:09;;;;;;;5.03;4.73;;;;;;;;;;4992139;28;21002;-77
2022/05/18 01:04:38;;;;;;;6.33;4.90;;;;;;;;;;4992059;28;20502;-77
2022/05/18 01:07:07;;;;;;;7.30;5.33;;;;;;;;;;4997734;28;20513;-77
2022/05/18 01:09:37;;;;;;;5.43;4.93;;;;;;;;;;5011630;28;20493;-77
2022/05/18 01:12:04;;;;;;;6.00;5.40;;;;;;;;;;5012364;28;20483;-77
2022/05/18 01:14:33;;;;;;;5.13;4.73;;;;;;;;;;5011593;28;20443;-77
2022/05/18 01:17:00;;;;;;;5.20;4.60;;;;;;;;;;5011581;28;20455;-77
2022/05/18 01:19:32;;;;;;;5.53;4.90;;;;;;;;;;5012768;28;20452;-76
2022/05/18 01:22:04;;;;;;;4.70;4.27;;;;;;;;;;5015851;28;20475;-76
2022/05/18 01:24:35;;;;;;;5.60;5.03;;;;;;;;;;5015411;28;20515;-76
2022/05/18 01:27:04;;;;;;;5.33;4.93;;;;;;;;;;5011399;28;20450;-77
2022/05/18 01:29:31;;;;;;;5.30;4.90;;;;;;;;;;5011322;28;20443;-77
2022/05/18 01:31:59;;;;;;;6.20;4.70;;;;;;;;;;5010777;28;20459;-76
2022/05/18 01:34:28;;;;;;;11.47;5.13;;;;;;;;;;5011102;28;20444;-78
2022/05/18 01:36:56;;;;;;;5.67;5.27;;;;;;;;;;5015150;28;20450;-77
2022/05/18 01:39:27;;;;;;;5.80;5.17;;;;;;;;;;5015634;28;20527;-77
2022/05/18 01:41:56;;;;;;;5.70;5.20;;;;;;;;;;5012096;28;20495;-76
2022/05/18 01:44:24;;;;;;;5.33;4.83;;;;;;;;;;5012925;28;20526;-77
2022/05/18 01:46:51;;;;;;;6.40;5.80;;;;;;;;;;5013459;28;20550;-76
2022/05/18 01:49:19;;;;;;;5.97;5.50;;;;;;;;;;5011460;28;20463;-76
2022/05/18 01:51:47;;;;;;;6.80;5.63;;;;;;;;;;5011652;28;20522;-76
2022/05/18 01:54:15;;;;;;;6.07;5.60;;;;;;;;;;5011521;28;20451;-77
2022/05/18 01:56:42;;;;;;;5.87;5.30;;;;;;;;;;5010823;28;20454;-77
2022/05/18 01:59:09;;;;;;;5.23;4.83;;;;;;;;;;5010809;28;20585;-77
2022/05/18 02:01:38;;;;;;;6.10;5.60;;;;;;;;;;5012103;28;20487;-77
2022/05/18 02:04:05;;;;;;;6.57;5.97;;;;;;;;;;5014231;28;20493;-76
2022/05/18 02:06:33;;;;;;;6.27;5.77;;;;;;;;;;5013163;28;20454;-77
2022/05/18 02:09:00;;;;;;;6.23;5.63;;;;;;;;;;4995089;28;20464;-76
2022/05/18 02:11:27;;;;;;;7.53;6.93;;;;;;;;;;4995161;28;20447;-77
2022/05/18 02:13:55;;;;;;;6.27;5.80;;;;;;;;;;4995326;28;20475;-76
2022/05/18 02:16:22;;;;;;;6.47;6.00;;;;;;;;;;4994565;28;20547;-78
2022/05/18 02:18:50;;;;;;;6.47;5.97;;;;;;;;;;4994258;28;21100;-77
2022/05/18 02:21:18;;;;;;;5.90;5.40;;;;;;;;;;4994541;28;20574;-77
2022/05/18 02:23:46;;;;;;;6.03;5.60;;;;;;;;;;4994827;28;20436;-77
2022/05/18 02:26:14;;;;;;;7.73;5.50;;;;;;;;;;4994791;28;20453;-77
2022/05/18 02:28:41;;;;;;;6.13;5.53;;;;;;;;;;4994207;28;20519;-78
2022/05/18 02:31:08;;;;;;;6.40;5.80;;;;;;;;;;4994384;28;20968;-78
2022/05/18 02:33:35;;;;;;;7.70;5.90;;;;;;;;;;5010635;28;20915;-76
2022/05/18 02:36:04;;;;;;;6.77;5.83;;;;;;;;;;5013872;28;20529;-77
2022/05/18 02:38:31;;;;;;;6.23;5.73;;;;;;;;;;4994131;28;20815;-77
2022/05/18 02:40:58;;;;;;;9.53;5.90;;;;;;;;;;4993872;28;20958;-76
2022/05/18 02:43:25;;;;;;;6.13;5.53;;;;;;;;;;4993722;28;20451;-76
2022/05/18 02:46:01;;;;;;;6.40;5.83;;;;;;;;;;4993790;28;20448;-77
2022/05/18 02:48:28;;;;;;;5.87;5.37;;;;;;;;;;4993774;28;20884;-77
2022/05/18 02:50:55;;;;;;;7.87;6.50;;;;;;;;;;4993512;28;20775;-77
2022/05/18 02:53:23;;;;;;;7.57;6.80;;;;;;;;;;4993486;28;20584;-77
2022/05/18 02:56:08;;;;;;;6.90;6.30;;;;;;;;;;4993863;28;20498;-77
2022/05/18 02:58:37;;;;;;;6.87;6.10;;;;;;;;;;4993363;28;20919;-77
2022/05/18 03:01:05;;;;;;;6.27;5.63;;;;;;;;;;4993459;28;20555;-77
2022/05/18 03:03:32;;;;;;;6.80;6.20;;;;;;;;;;4993630;28;20555;-76
2022/05/18 03:05:59;;;;;;;6.73;6.23;;;;;;;;;;4993595;28;20433;-77
2022/05/18 03:08:27;;;;;;;6.53;6.00;;;;;;;;;;5010160;28;20827;-77
2022/05/18 03:10:54;;;;;;;7.00;6.30;;;;;;;;;;5012859;28;20447;-76
2022/05/18 03:13:21;;;;;;;7.17;6.57;;;;;;;;;;5011535;28;20447;-79
2022/05/18 03:15:48;;;;;;;7.60;6.80;;;;;;;;;;5013005;28;20494;-77
2022/05/18 03:18:16;;;;;;;7.20;6.50;;;;;;;;;;5012816;28;20471;-77
2022/05/18 03:23:36;;;;;;;11.60;5.80;;;;;;;;;;5012321;28;20416;-77
2022/05/18 03:26:04;;;;;;;7.47;6.70;;;;;;;;;;5012972;28;20450;-77
2022/05/18 03:28:31;;;;;;;6.47;5.80;;;;;;;;;;5012639;28;20542;-77
2022/05/18 03:30:58;;;;;;;6.77;6.13;;;;;;;;;;5012543;28;20530;-77
2022/05/18 03:33:25;;;;;;;6.17;5.63;;;;;;;;;;5012539;28;20444;-77
2022/05/18 03:35:53;;;;;;;6.30;5.70;;;;;;;;;;5012471;28;20494;-77
2022/05/18 03:38:20;;;;;;;7.00;6.30;;;;;;;;;;5012051;28;20530;-77
2022/05/18 03:40:50;;;;;;;6.97;6.27;;;;;;;;;;5012704;28;20447;-76
2022/05/18 03:43:17;;;;;;;7.00;6.40;;;;;;;;;;5012400;28;20475;-77
2022/05/18 03:45:44;;;;;;;7.70;5.90;;;;;;;;;;5013242;28;20443;-77
2022/05/18 03:48:12;;;;;;;8.30;6.43;;;;;;;;;;5012450;28;20459;-77
2022/05/18 03:50:39;;;;;;;8.23;7.30;;;;;;;;;;5012187;28;20479;-77
2022/05/18 03:53:06;;;;;;;7.97;7.27;;;;;;;;;;5012034;28;20450;-77
2022/05/18 03:55:34;;;;;;;8.00;7.20;;;;;;;;;;5012468;28;21211;-76
2022/05/18 03:58:02;;;;;;;8.20;6.87;;;;;;;;;;5012044;28;20517;-77
2022/05/18 04:00:30;;;;;;;7.17;6.37;;;;;;;;;;5011940;28;20806;-77
2022/05/18 04:02:57;;;;;;;7.20;6.53;;;;;;;;;;5010693;28;20540;-77
2022/05/18 04:05:25;;;;;;;8.97;7.07;;;;;;;;;;5011713;28;20510;-78
2022/05/18 04:07:52;;;;;;;8.57;6.90;;;;;;;;;;5012380;28;20478;-77
2022/05/18 04:10:19;;;;;;;7.60;6.53;;;;;;;;;;5012201;28;20935;-78
2022/05/18 04:12:46;;;;;;;8.60;7.00;;;;;;;;;;5023003;28;20431;-76
2022/05/18 04:15:16;;;;;;;7.97;7.27;;;;;;;;;;5027225;28;20431;-77
2022/05/18 04:17:43;;;;;;;8.47;7.67;;;;;;;;;;5029690;28;20459;-76
2022/05/18 04:20:11;;;;;;;7.53;6.83;;;;;;;;;;5032545;28;20493;-77
2022/05/18 04:22:38;;;;;;;8.33;7.63;;;;;;;;;;5011166;28;20541;-76
2022/05/18 04:25:05;;;;;;;9.63;7.23;;;;;;;;;;5008720;28;20474;-77
2022/05/18 04:27:32;;;;;;;8.33;7.63;;;;;;;;;;5009958;28;20443;-76
2022/05/18 04:29:59;;;;;;;9.93;6.80;;;;;;;;;;5035502;28;20475;-77
2022/05/18 04:32:28;;;;;;;7.73;7.10;;;;;;;;;;5025651;28;20444;-76
2022/05/18 04:34:55;;;;;;;8.10;7.23;;;;;;;;;;5020203;28;20451;-75
2022/05/18 04:37:22;;;;;;;9.73;8.10;;;;;;;;;;5018682;28;20472;-77
2022/05/18 04:39:49;;;;;;;7.90;7.10;;;;;;;;;;5014556;28;20497;-75
2022/05/18 04:42:18;;;;;;;10.10;8.17;;;;;;;;;;5014560;28;20479;-76
2022/05/18 04:44:45;;;;;;;8.83;7.93;;;;;;;;;;5017332;28;20494;-76
2022/05/18 04:47:12;;;;;;;10.10;9.03;;;;;;;;;;5017495;28;20439;-75
2022/05/18 04:49:40;;;;;;;10.87;8.10;;;;;;;;;;5012653;28;20447;-76
2022/05/18 04:52:08;;;;;;;9.07;7.93;;;;;;;;;;5014244;28;20926;-76
2022/05/18 04:54:35;;;;;;;9.70;8.70;;;;;;;;;;5016177;28;20439;-77
2022/05/18 04:57:02;;;;;;;11.07;7.90;;;;;;;;;;5012502;28;20505;-76
2022/05/18 04:59:29;;;;;;;9.50;8.60;;;;;;;;;;5011054;28;20466;-77
2022/05/18 05:01:56;;;;;;;11.03;8.50;;;;;;;;;;5011581;28;20487;-76
2022/05/18 05:04:23;;;;;;;9.50;8.60;;;;;;;;;;5012527;28;20501;-77
2022/05/18 05:06:52;;;;;;;12.03;8.57;;;;;;;;;;5014788;28;20444;-76
2022/05/18 05:09:22;;;;;;;10.87;9.20;;;;;;;;;;5011434;28;20529;-76
2022/05/18 05:11:49;;;;;;;12.33;8.10;;;;;;;;;;5011723;28;20443;-77
2022/05/18 05:14:16;;;;;;;11.50;9.30;;;;;;;;;;5011767;28;20844;-76
2022/05/18 05:16:43;;;;;;;14.53;9.17;;;;;;;;;;5011556;28;20742;-77
2022/05/18 05:19:10;;;;;;;9.73;8.90;;;;;;;;;;5011226;28;20459;-76
2022/05/18 05:21:41;;;;;;;10.43;9.43;;;;;;;;;;5011390;28;20448;-76
2022/05/18 05:24:10;;;;;;;10.03;8.93;;;;;;;;;;5011785;28;20509;-76
2022/05/18 05:26:37;;;;;;;11.90;9.70;;;;;;;;;;5013494;28;20447;-76
2022/05/18 05:29:05;;;;;;;11.30;8.90;;;;;;;;;;5010956;28;20975;-75
2022/05/18 05:31:32;;;;;;;9.17;8.30;;;;;;;;;;5011255;28;20455;-76
2022/05/18 05:33:59;;;;;;;15.43;9.00;;;;;;;;;;5010421;28;20506;-76
2022/05/18 05:36:27;;;;;;;10.20;9.10;;;;;;;;;;5012463;28;20439;-76
2022/05/18 05:38:55;;;;;;;9.97;9.03;;;;;;;;;;5014939;28;20467;-77
2022/05/18 05:41:23;;;;;;;12.73;8.27;;;;;;;;;;5014333;28;20870;-76
2022/05/18 05:43:51;;;;;;;9.50;7.77;;;;;;;;;;5014466;28;20479;-76
2022/05/18 05:46:18;;;;;;;16.23;8.20;;;;;;;;;;5014577;28;20486;-77
2022/05/18 05:48:46;;;;;;;9.10;7.50;;;;;;;;;;5014343;28;20474;-77
2022/05/18 05:51:14;;;;;;;8.27;7.50;;;;;;;;;;5015131;28;20439;-79
2022/05/18 05:53:41;;;;;;;8.40;6.87;;;;;;;;;;5014929;28;20443;-77
2022/05/18 05:56:09;;;;;;;8.30;7.03;;;;;;;;;;5015083;28;20439;-76
2022/05/18 05:58:38;;;;;;;10.93;8.37;;;;;;;;;;5015058;28;20478;-79
2022/05/18 06:01:06;;;;;;;13.10;7.63;;;;;;;;;;5014778;28;20450;-77
2022/05/18 06:03:33;;;;;;;8.43;6.87;;;;;;;;;;5014666;28;21025;-76
2022/05/18 06:06:00;;;;;;;9.23;8.10;;;;;;;;;;5018531;28;20526;-78
2022/05/18 06:08:28;;;;;;;8.67;7.57;;;;;;;;;;5006743;28;20459;-76
2022/05/18 06:10:55;;;;;;;14.60;8.00;;;;;;;;;;5002670;28;20444;-77
2022/05/18 06:13:22;;;;;;;10.57;8.17;;;;;;;;;;5002518;28;20440;-76
2022/05/18 06:15:50;;;;;;;9.10;7.80;;;;;;;;;;5004434;28;20444;-77
2022/05/18 06:18:17;;;;;;;9.10;8.17;;;;;;;;;;5004971;28;20511;-77
2022/05/18 06:20:45;;;;;;;9.03;8.23;;;;;;;;;;5006267;28;20444;-78
2022/05/18 06:23:12;;;;;;;11.73;7.27;;;;;;;;;;4997073;28;21038;-78
2022/05/18 06:25:39;;;;;;;9.13;7.40;;;;;;;;;;4995580;28;20440;-77
2022/05/18 06:28:07;;;;;;;8.67;7.77;;;;;;;;;;4994814;28;20472;-77
2022/05/18 06:30:34;;;;;;;8.67;7.87;;;;;;;;;;4996467;28;20513;-77
2022/05/18 06:33:02;;;;;;;10.13;6.23;;;;;;;;;;5009944;28;20443;-77
2022/05/18 06:35:29;;;;;;;9.30;7.10;;;;;;;;;;5013716;28;20447;-77
2022/05/18 06:37:57;;;;;;;7.30;6.60;;;;;;;;;;5014741;28;20463;-77
2022/05/18 06:41:21;;;;;;;6.50;5.90;;;;;;;;;;5014039;28;21100;-77
2022/05/18 06:43:12;;;;;;;6.50;5.80;;;;;;;;;;5003675;28;20468;-77
2022/05/18 06:45:39;;;;;;;10.07;6.70;;;;;;;;;;5001055;28;20448;-78
2022/05/18 06:48:07;;;;;;;6.77;6.17;;;;;;;;;;5008978;28;20467;-78
2022/05/18 06:50:34;;;;;;;8.30;5.90;;;;;;;;;;5013310;28;20494;-77
2022/05/18 06:53:01;;;;;;;10.17;6.40;;;;;;;;;;5013080;28;20435;-76
2022/05/18 06:55:28;;;;;;;9.43;7.10;;;;;;;;;;5007428;28;20447;-77
2022/05/18 06:57:55;;;;;;;12.50;6.60;;;;;;;;;;5012734;28;20479;-78
2022/05/18 07:00:23;;;;;;;7.67;6.43;;;;;;;;;;5012601;28;20965;-77
2022/05/18 07:02:50;;;;;;;7.70;6.67;;;;;;;;;;5013127;28;20502;-77
2022/05/18 07:05:18;;;;;;;7.73;6.87;;;;;;;;;;5012305;28;20439;-77
2022/05/18 07:07:45;;;;;;;10.67;6.67;;;;;;;;;;5006789;28;20823;-77
2022/05/18 07:10:12;;;;;;;7.70;6.90;;;;;;;;;;5013026;28;20486;-77
2022/05/18 07:12:40;;;;;;;8.53;6.57;;;;;;;;;;5012778;28;20439;-77
2022/05/18 07:15:07;;;;;;;7.37;6.67;;;;;;;;;;5013264;28;21069;-77
2022/05/18 07:17:35;;;;;;;7.73;6.53;;;;;;;;;;5013065;28;20471;-77
2022/05/18 07:20:02;;;;;;;7.33;6.00;;;;;;;;;;5013117;28;20622;-77
2022/05/18 07:22:30;;;;;;;7.77;6.27;;;;;;;;;;5012570;28;20442;-80
2022/05/18 07:24:57;;;;;;;9.23;6.13;;;;;;;;;;5012470;28;20501;-76
2022/05/18 07:27:24;;;;;;;6.33;5.73;;;;;;;;;;5012881;28;20474;-76
2022/05/18 07:29:51;;;;;;;8.63;6.00;;;;;;;;;;5012778;28;20458;-76
2022/05/18 07:32:18;;;;;;;6.80;6.10;;;;;;;;;;5006350;28;20464;-76
2022/05/18 07:34:47;;;;;;;7.27;5.83;;;;;;;;;;5013184;28;20452;-77
2022/05/18 07:37:15;;;;;;;11.10;5.40;;;;;;;;;;5017769;28;20447;-77
2022/05/18 07:39:43;;;;;;;6.20;5.60;;;;;;;;;;5015694;28;20451;-77
2022/05/18 07:42:11;;;;;;;6.80;5.10;;;;;;;;;;5012874;28;20547;-77
2022/05/18 07:44:38;;;;;;;10.00;5.20;;;;;;;;;;5017781;28;20510;-77
2022/05/18 07:47:06;;;;;;;8.00;5.60;;;;;;;;;;5016803;28;20452;-77
2022/05/18 07:49:35;;;;;;;5.73;5.13;;;;;;;;;;5012240;28;20513;-77
2022/05/18 07:52:02;;;;;;;6.43;4.13;;;;;;;;;;5013426;28;20455;-77
2022/05/18 07:54:29;;;;;;;5.57;4.77;;;;;;;;;;5015579;28;20444;-76
2022/05/18 07:56:57;;;;;;;6.13;5.53;;;;;;;;;;5012541;28;20497;-76
2022/05/18 07:59:24;;;;;;;6.47;4.30;;;;;;;;;;5016072;28;20474;-77
2022/05/18 08:01:51;;;;;;;4.90;4.50;;;;;;;;;;5015491;28;20443;-77
2022/05/18 08:04:19;;;;;;;6.23;5.47;;;;;;;;;;5011838;28;20490;-77
2022/05/18 08:06:46;;;;;;;5.00;4.60;;;;;;;;;;5012149;28;20435;-76
2022/05/18 08:09:13;;;;;;;6.17;4.00;;;;;;;;;;5012012;28;20877;-77
2022/05/18 08:17:11;;;;;;;11.83;4.90;;;;;;;;;;5012072;28;20808;-76
2022/05/18 08:19:38;;;;;;;5.40;4.30;;;;;;;;;;5003972;28;20559;-76
2022/05/18 08:22:14;;;;;;;4.53;4.00;;;;;;;;;;5012196;28;20521;-77
2022/05/18 08:24:45;;;;;;;5.77;4.07;;;;;;;;;;5011066;28;20479;-77
2022/05/18 08:27:13;;;;;;;4.57;3.80;;;;;;;;;;5005914;28;20452;-78
2022/05/18 08:29:41;;;;;;;5.50;4.63;;;;;;;;;;5013599;28;20531;-78
2022/05/18 08:32:09;;;;;;;5.47;4.53;;;;;;;;;;5009797;28;20847;-76
2022/05/18 08:34:36;;;;;;;6.37;4.40;;;;;;;;;;5009273;28;20790;-77
2022/05/18 08:37:03;;;;;;;6.30;4.03;;;;;;;;;;5011328;28;20819;-77
2022/05/18 08:39:30;;;;;;;5.20;4.63;;;;;;;;;;5011102;28;20938;-78
2022/05/18 08:42:00;;;;;;;4.50;4.10;;;;;;;;;;5003967;28;20509;-79
2022/05/18 08:44:31;;;;;;;4.47;3.97;;;;;;;;;;5010030;28;20911;-77
2022/05/18 08:47:09;;;;;;;5.30;4.13;;;;;;;;;;5008141;28;20463;-77
2022/05/18 08:49:40;;;;;;;4.83;4.43;;;;;;;;;;5004010;28;20474;-77
2022/05/18 08:52:14;;;;;;;7.73;4.40;;;;;;;;;;5010889;28;20533;-76
2022/05/18 08:54:48;;;;;;;4.50;4.20;;;;;;;;;;5010620;28;20439;-77
2022/05/18 08:57:18;;;;;;;4.40;3.90;;;;;;;;;;4998619;28;20443;-78
2022/05/18 08:59:46;;;;;;;6.70;4.87;;;;;;;;;;5005561;28;20483;-78
2022/05/18 09:02:17;;;;;;;6.57;4.10;;;;;;;;;;5003749;28;20882;-79
2022/05/18 09:04:47;;;;;;;4.57;4.27;;;;;;;;;;5005992;28;20998;-80
2022/05/18 09:07:16;;;;;;;5.07;4.20;;;;;;;;;;5013432;28;20461;-78
2022/05/18 09:12:32;;;;;;;4.00;3.67;;;;;;;;;;5035484;28;20914;-78
2022/05/18 09:14:59;;;;;;;4.90;4.30;;;;;;;;;;5036347;28;20450;-80
2022/05/18 09:17:32;;;;;;;4.40;4.00;;;;;;;;;;5036871;28;20549;-77
2022/05/18 09:20:11;;;;;;;7.13;4.00;;;;;;;;;;5035109;28;20534;-77
2022/05/18 09:22:44;;;;;;;5.00;3.93;;;;;;;;;;5034457;28;20926;-77
2022/05/18 09:25:27;;;;;;;4.27;3.97;;;;;;;;;;5034489;28;20513;-77
2022/05/18 09:28:00;;;;;;;4.63;4.23;;;;;;;;;;5034768;28;20474;-77
2022/05/18 09:30:29;;;;;;;5.27;4.03;;;;;;;;;;5034670;28;20473;-77
2022/05/18 09:33:06;;;;;;;4.57;4.17;;;;;;;;;;5034448;28;20865;-77
2022/05/18 09:35:40;;;;;;;3.90;3.60;;;;;;;;;;5035053;28;20450;-76
2022/05/18 09:38:10;;;;;;;3.97;3.50;;;;;;;;;;5035075;28;20466;-77
2022/05/18 09:40:39;;;;;;;4.33;3.80;;;;;;;;;;5034606;28;20473;-76
2022/05/18 09:43:10;;;;;;;4.00;3.60;;;;;;;;;;5034225;28;20449;-77
2022/05/18 09:45:38;;;;;;;3.67;3.30;;;;;;;;;;5034265;28;20466;-77
2022/05/18 09:48:09;;;;;;;3.10;2.90;;;;;;;;;;5034017;28;20479;-77
2022/05/18 09:50:37;;;;;;;5.27;2.80;;;;;;;;;;5034507;28;20942;-77
2022/05/18 09:53:04;;;;;;;3.13;2.63;;;;;;;;;;5033660;28;20442;-77
2022/05/18 09:55:31;;;;;;;3.33;3.03;;;;;;;;;;5034299;28;20453;-76
2022/05/18 09:58:01;;;;;;;2.87;2.67;;;;;;;;;;5034157;28;20569;-76
2022/05/18 10:00:30;;;;;;;4.83;4.33;;;;;;;;;;5034282;28;20465;-76
2022/05/18 10:08:33;;;;;;;3.73;2.80;;;;;;;;;;4980496;28;20462;-76
2022/05/18 10:11:02;;;;;;;4.40;3.23;;;;;;;;;;5010676;28;20447;-76
2022/05/18 10:13:31;;;;;;;3.07;2.83;;;;;;;;;;5013654;28;20794;-75
2022/05/18 10:16:03;;;;;;;3.10;2.87;;;;;;;;;;5013674;28;20538;-76
2022/05/18 10:18:34;;;;;;;2.83;2.60;;;;;;;;;;5013755;28;20478;-76
2022/05/18 10:21:06;;;;;;;2.80;2.70;;;;;;;;;;5011285;28;20509;-77
2022/05/18 10:23:36;;;;;;;4.60;2.67;;;;;;;;;;5014200;28;20566;-78
2022/05/18 10:26:04;;;;;;;2.67;2.50;;;;;;;;;;5013837;28;20451;-78
2022/05/18 10:28:32;;;;;;;3.23;2.80;;;;;;;;;;5015735;28;20498;-78
2022/05/18 10:31:01;;;;;;;2.87;2.60;;;;;;;;;;5018083;28;20448;-77
2022/05/18 10:33:32;;;;;;;2.43;2.33;;;;;;;;;;5012140;28;20451;-77
2022/05/18 10:36:08;;;;;;;5.47;2.90;;;;;;;;;;5012712;28;20526;-77
2022/05/18 10:38:37;;;;;;;3.83;2.87;;;;;;;;;;5013502;28;20474;-77
2022/05/18 10:41:12;;;;;;;3.00;2.53;;;;;;;;;;5022467;28;20446;-78
2022/05/18 10:43:40;;;;;;;3.13;2.93;;;;;;;;;;5034462;28;20493;-78
2022/05/18 10:46:10;;;;;;;3.60;2.47;;;;;;;;;;5029618;28;20852;-76
2022/05/18 10:48:37;;;;;;;3.37;2.83;;;;;;;;;;5024275;28;20475;-77
2022/05/18 10:51:06;;;;;;;2.60;2.20;;;;;;;;;;5020461;28;20446;-77
2022/05/18 10:53:35;;;;;;;2.90;2.60;;;;;;;;;;5015958;28;20501;-78
2022/05/18 10:56:08;;;;;;;2.13;2.03;;;;;;;;;;5017176;28;20443;-78
2022/05/18 10:58:36;;;;;;;3.20;2.30;;;;;;;;;;5013441;28;20475;-77
2022/05/18 11:01:05;;;;;;;2.40;2.23;;;;;;;;;;5011333;28;20572;-77
2022/05/18 11:03:36;;;;;;;2.30;2.10;;;;;;;;;;5013827;28;20846;-77
2022/05/18 11:06:04;;;;;;;2.87;2.00;;;;;;;;;;5015725;28;20531;-78
2022/05/18 11:08:31;;;;;;;1.93;1.83;;;;;;;;;;5014065;28;20533;-78
2022/05/18 11:11:02;;;;;;;2.53;2.37;;;;;;;;;;5015789;28;20482;-78
2022/05/18 11:13:34;;;;;;;2.87;2.63;;;;;;;;;;5016892;28;20439;-78
2022/05/18 11:16:05;;;;;;;3.93;2.60;;;;;;;;;;5013689;28;20443;-78
2022/05/18 11:18:36;;;;;;;2.40;2.20;;;;;;;;;;5023070;28;20482;-76
2022/05/18 11:21:08;;;;;;;2.60;2.40;;;;;;;;;;5032777;28;20447;-76
2022/05/18 11:23:40;;;;;;;2.30;1.87;;;;;;;;;;5032565;28;20716;-76
2022/05/18 11:26:12;;;;;;;2.10;2.00;;;;;;;;;;5032569;28;20715;-76
2022/05/18 11:28:46;;;;;;;3.23;1.63;;;;;;;;;;5032735;28;20522;-76
2022/05/18 11:31:23;;;;;;;2.03;1.63;;;;;;;;;;5032541;28;20470;-76
2022/05/18 11:36:58;;;;;;;2.80;2.20;;;;;;;;;;5007889;28;20518;-76
2022/05/18 11:39:32;;;;;;;2.40;2.30;;;;;;;;;;5010973;28;20439;-77
2022/05/18 11:42:08;;;;;;;2.10;2.00;;;;;;;;;;5012745;28;20483;-77
2022/05/18 11:44:41;;;;;;;3.83;2.53;;;;;;;;;;5012651;28;20900;-78
2022/05/18 11:47:16;;;;;;;4.40;2.67;;;;;;;;;;5012450;28;20885;-76
2022/05/18 11:49:47;;;;;;;2.40;2.27;;;;;;;;;;5012391;28;20489;-76
2022/05/18 11:52:18;;;;;;;2.30;2.10;;;;;;;;;;5012657;28;20971;-77
2022/05/18 11:54:53;;;;;;;2.40;2.30;;;;;;;;;;5012272;28;20457;-76
2022/05/18 11:57:24;;;;;;;2.93;2.60;;;;;;;;;;5012275;28;20478;-76
2022/05/18 12:00:01;;;;;;;3.27;2.60;;;;;;;;;;5011947;28;20440;-77
2022/05/18 12:02:47;;;;;;;2.30;2.10;;;;;;;;;;5012138;28;20458;-77
2022/05/18 12:05:27;;;;;;;2.07;1.97;;;;;;;;;;5012069;28;21045;-77
2022/05/18 12:08:10;;;;;;;2.50;2.30;;;;;;;;;;5012117;28;20466;-76
2022/05/18 12:10:38;;;;;;;2.50;2.10;;;;;;;;;;5011811;28;20505;-76
2022/05/18 12:13:09;;;;;;;1.80;1.70;;;;;;;;;;5011823;28;20451;-77
2022/05/18 12:15:43;;;;;;;2.27;2.10;;;;;;;;;;5011877;28;20447;-76
2022/05/18 12:18:13;;;;;;;2.57;2.20;;;;;;;;;;5013185;28;20468;-77
2022/05/18 12:20:42;;;;;;;3.47;2.50;;;;;;;;;;5012764;28;20435;-77
2022/05/18 12:23:11;;;;;;;6.03;2.50;;;;;;;;;;5011562;28;20525;-76
2022/05/18 12:25:39;;;;;;;3.80;2.10;;;;;;;;;;5012705;28;20487;-76
2022/05/18 12:28:07;;;;;;;2.33;2.13;;;;;;;;;;5012762;28;20471;-76
2022/05/18 12:30:37;;;;;;;7.40;6.90;;;;;;;;;;5012772;28;20443;-75
2022/05/18 12:33:07;;;;;;;2.43;2.27;;;;;;;;;;5011663;28;20988;-75
2022/05/18 12:35:36;;;;;;;2.53;2.43;;;;;;;;;;5011556;28;20439;-76
2022/05/18 12:38:05;;;;;;;3.03;2.83;;;;;;;;;;5011644;28;20491;-75
2022/05/18 12:40:34;;;;;;;2.20;2.10;;;;;;;;;;5011439;28;20880;-76
2022/05/18 12:43:04;;;;;;;4.23;2.10;;;;;;;;;;5011197;28;20502;-76
2022/05/18 12:45:33;;;;;;;3.03;2.40;;;;;;;;;;5010835;28;20537;-75
2022/05/18 12:48:08;;;;;;;3.87;2.43;;;;;;;;;;5011690;28;20464;-76
2022/05/18 12:50:37;;;;;;;4.63;2.13;;;;;;;;;;5012512;28;20455;-76
2022/05/18 12:53:12;;;;;;;1.97;1.87;;;;;;;;;;5014200;28;20454;-76
2022/05/18 12:55:40;;;;;;;2.20;2.10;;;;;;;;;;5014299;28;20430;-75
2022/05/18 12:58:25;;;;;;;3.10;2.80;;;;;;;;;;5012568;28;20497;-75
2022/05/18 13:00:57;;;;;;;2.10;2.00;;;;;;;;;;5011338;28;20526;-75
2022/05/18 13:03:28;;;;;;;2.00;1.90;;;;;;;;;;5011347;28;20463;-76
2022/05/18 13:05:55;;;;;;;2.27;2.07;;;;;;;;;;5011763;28;20475;-76
2022/05/18 13:08:37;;;;;;;3.03;2.27;;;;;;;;;;5011844;28;20459;-76
2022/05/18 13:11:10;;;;;;;2.53;2.30;;;;;;;;;;4978621;28;20447;-76
2022/05/18 13:13:56;;;;;;;2.70;2.50;;;;;;;;;;5011048;28;20911;-76
2022/05/18 13:16:36;;;;;;;3.40;2.77;;;;;;;;;;5011566;28;20431;-75
2022/05/18 13:19:15;;;;;;;2.90;2.37;;;;;;;;;;5011445;28;20467;-76
2022/05/18 13:21:45;;;;;;;2.43;2.23;;;;;;;;;;5011622;28;20815;-75
2022/05/18 13:24:13;;;;;;;2.30;2.20;;;;;;;;;;5011556;28;20467;-75
2022/05/18 13:26:43;;;;;;;3.23;2.63;;;;;;;;;;5012218;28;20450;-76
2022/05/18 13:29:13;;;;;;;2.80;2.47;;;;;;;;;;5011881;28;20471;-75
2022/05/18 13:31:41;;;;;;;3.63;2.40;;;;;;;;;;5011709;28;20558;-75
2022/05/18 13:34:11;;;;;;;2.23;2.10;;;;;;;;;;5011806;28;20778;-76
2022/05/18 13:36:39;;;;;;;3.10;2.30;;;;;;;;;;5011577;28;20447;-76
2022/05/18 13:39:08;;;;;;;2.53;2.40;;;;;;;;;;5011153;28;20494;-75
2022/05/18 13:41:36;;;;;;;4.97;2.40;;;;;;;;;;5011664;28;20804;-76
2022/05/18 13:44:04;;;;;;;2.33;2.13;;;;;;;;;;5011090;28;20443;-77
2022/05/18 13:46:33;;;;;;;3.53;2.30;;;;;;;;;;5011836;28;20479;-75
2022/05/18 13:49:03;;;;;;;4.50;3.10;;;;;;;;;;5011801;28;20466;-75
2022/05/18 13:51:34;;;;;;;2.77;2.57;;;;;;;;;;5011345;28;20501;-75
2022/05/18 13:54:02;;;;;;;2.47;2.30;;;;;;;;;;5011192;28;20863;-75
2022/05/18 13:56:35;;;;;;;5.53;2.60;;;;;;;;;;5011071;28;20586;-76
2022/05/18 13:59:05;;;;;;;2.50;2.30;;;;;;;;;;5016311;28;20479;-75
2022/05/18 14:01:33;;;;;;;3.80;2.27;;;;;;;;;;5016964;28;20526;-75
2022/05/18 14:04:00;;;;;;;3.43;2.10;;;;;;;;;;5014201;28;20447;-76
2022/05/18 14:06:28;;;;;;;2.50;2.40;;;;;;;;;;5013607;28;20541;-76
2022/05/18 14:08:58;;;;;;;2.37;2.17;;;;;;;;;;4994767;28;20472;-75
2022/05/18 14:11:26;;;;;;;2.00;1.90;;;;;;;;;;5000211;28;20883;-75
2022/05/18 14:13:54;;;;;;;2.10;1.90;;;;;;;;;;5016196;28;20542;-76
2022/05/18 14:16:28;;;;;;;2.87;2.37;;;;;;;;;;5037263;28;20888;-75
2022/05/18 14:18:57;;;;;;;2.57;2.37;;;;;;;;;;5012213;28;20463;-75
2022/05/18 14:21:25;;;;;;;2.50;2.30;;;;;;;;;;5032917;28;20470;-75
2022/05/18 14:23:55;;;;;;;3.00;2.07;;;;;;;;;;5022818;28;20447;-73
2022/05/18 14:26:26;;;;;;;2.43;2.20;;;;;;;;;;5015836;28;20534;-76
2022/05/18 14:28:54;;;;;;;2.13;1.93;;;;;;;;;;5014287;28;20475;-75
2022/05/18 14:31:22;;;;;;;2.60;2.30;;;;;;;;;;5014350;28;20560;-76
2022/05/18 14:33:51;;;;;;;4.40;2.30;;;;;;;;;;5014105;28;20931;-76
2022/05/18 14:36:29;;;;;;;2.60;2.20;;;;;;;;;;5013913;28;20447;-75
2022/05/18 14:39:02;;;;;;;2.53;2.37;;;;;;;;;;5014009;28;20502;-75
2022/05/18 14:41:33;;;;;;;3.10;2.20;;;;;;;;;;5014209;28;20587;-75
2022/05/18 14:44:00;;;;;;;2.77;2.57;;;;;;;;;;5013995;28;20451;-75
2022/05/18 14:46:29;;;;;;;2.90;2.33;;;;;;;;;;5013812;28;20537;-75
2022/05/18 14:49:05;;;;;;;3.93;2.50;;;;;;;;;;5013823;28;20604;-75
2022/05/18 14:51:33;;;;;;;2.70;2.30;;;;;;;;;;5014109;28;20455;-76
2022/05/18 14:54:02;;;;;;;2.50;2.40;;;;;;;;;;5013913;28;20482;-74
2022/05/18 14:56:31;;;;;;;2.20;2.10;;;;;;;;;;5009274;28;20451;-75
2022/05/18 14:58:59;;;;;;;2.53;2.40;;;;;;;;;;5013122;28;20475;-75
2022/05/18 15:01:33;;;;;;;2.70;2.50;;;;;;;;;;5012985;28;21014;-75
2022/05/18 15:04:03;;;;;;;2.40;2.30;;;;;;;;;;5013500;28;20448;-75
2022/05/18 15:06:30;;;;;;;2.83;2.27;;;;;;;;;;5013151;28;20479;-75
2022/05/18 15:09:01;;;;;;;3.47;3.00;;;;;;;;;;5012032;28;20471;-75
2022/05/18 15:11:37;;;;;;;2.33;2.23;;;;;;;;;;5013642;28;20515;-76